sensor_id;sensor_type;location;lat;lon;timestamp;temperature;humidity
42755;DHT22;28407;51.830;5.684;2023-05-14T00:01:50;18.60;60.20
42755;DHT22;28407;51.830;5.684;2023-05-14T00:03:51;18.50;60.30
42755;DHT22;28407;51.830;5.684;2023-05-14T00:05:52;18.50;60.40
42755;DHT22;28407;51.830;5.684;2023-05-14T00:07:52;18.50;60.50
42755;DHT22;28407;51.830;5.684;2023-05-14T00:09:53;18.50;60.60
42755;DHT22;28407;51.830;5.684;2023-05-14T00:11:53;18.40;60.60
42755;DHT22;28407;51.830;5.684;2023-05-14T00:13:54;18.40;60.70
42755;DHT22;28407;51.830;5.684;2023-05-14T00:15:55;18.40;60.70
42755;DHT22;28407;51.830;5.684;2023-05-14T00:17:55;18.30;60.80
42755;DHT22;28407;51.830;5.684;2023-05-14T00:19:56;18.30;60.90
42755;DHT22;28407;51.830;5.684;2023-05-14T00:21:56;18.30;61.00
42755;DHT22;28407;51.830;5.684;2023-05-14T00:23:57;18.30;61.00
42755;DHT22;28407;51.830;5.684;2023-05-14T00:25:58;18.20;61.10
42755;DHT22;28407;51.830;5.684;2023-05-14T00:27:58;18.20;61.20
42755;DHT22;28407;51.830;5.684;2023-05-14T00:29:59;18.20;61.20
42755;DHT22;28407;51.830;5.684;2023-05-14T00:31:59;18.20;61.30
42755;DHT22;28407;51.830;5.684;2023-05-14T00:34:00;18.10;61.20
42755;DHT22;28407;51.830;5.684;2023-05-14T00:36:01;18.10;61.30
42755;DHT22;28407;51.830;5.684;2023-05-14T00:38:02;18.10;61.40
42755;DHT22;28407;51.830;5.684;2023-05-14T00:40:03;18.10;61.50
42755;DHT22;28407;51.830;5.684;2023-05-14T00:42:06;18.10;61.60
42755;DHT22;28407;51.830;5.684;2023-05-14T00:44:06;18.10;61.60
42755;DHT22;28407;51.830;5.684;2023-05-14T00:46:07;18.10;61.60
42755;DHT22;28407;51.830;5.684;2023-05-14T00:48:08;18.00;61.60
42755;DHT22;28407;51.830;5.684;2023-05-14T00:50:09;18.00;61.60
42755;DHT22;28407;51.830;5.684;2023-05-14T00:52:10;18.00;61.60
42755;DHT22;28407;51.830;5.684;2023-05-14T00:54:15;18.00;61.60
42755;DHT22;28407;51.830;5.684;2023-05-14T00:56:16;18.00;61.70
42755;DHT22;28407;51.830;5.684;2023-05-14T00:58:18;18.00;61.70
42755;DHT22;28407;51.830;5.684;2023-05-14T01:00:19;17.90;61.60
42755;DHT22;28407;51.830;5.684;2023-05-14T01:02:19;17.90;61.60
42755;DHT22;28407;51.830;5.684;2023-05-14T01:04:20;17.90;61.60
42755;DHT22;28407;51.830;5.684;2023-05-14T01:06:27;17.90;61.60
42755;DHT22;28407;51.830;5.684;2023-05-14T01:08:39;17.90;61.60
42755;DHT22;28407;51.830;5.684;2023-05-14T01:10:51;17.90;61.60
42755;DHT22;28407;51.830;5.684;2023-05-14T01:13:32;17.90;61.60
42755;DHT22;28407;51.830;5.684;2023-05-14T01:15:35;17.90;61.50
42755;DHT22;28407;51.830;5.684;2023-05-14T01:17:45;17.80;61.50
42755;DHT22;28407;51.830;5.684;2023-05-14T01:19:46;17.80;61.50
42755;DHT22;28407;51.830;5.684;2023-05-14T01:21:47;17.80;61.50
42755;DHT22;28407;51.830;5.684;2023-05-14T01:23:48;17.80;61.60
42755;DHT22;28407;51.830;5.684;2023-05-14T01:25:49;17.80;61.60
42755;DHT22;28407;51.830;5.684;2023-05-14T01:27:58;17.80;61.70
42755;DHT22;28407;51.830;5.684;2023-05-14T01:30:16;17.70;61.70
42755;DHT22;28407;51.830;5.684;2023-05-14T01:32:19;17.70;61.70
42755;DHT22;28407;51.830;5.684;2023-05-14T01:34:25;17.70;61.80
42755;DHT22;28407;51.830;5.684;2023-05-14T01:36:27;17.70;61.90
42755;DHT22;28407;51.830;5.684;2023-05-14T01:38:29;17.60;61.90
42755;DHT22;28407;51.830;5.684;2023-05-14T01:40:35;17.60;61.90
42755;DHT22;28407;51.830;5.684;2023-05-14T01:42:37;17.60;62.10
42755;DHT22;28407;51.830;5.684;2023-05-14T01:44:38;17.60;62.10
42755;DHT22;28407;51.830;5.684;2023-05-14T01:46:39;17.60;62.10
42755;DHT22;28407;51.830;5.684;2023-05-14T01:48:39;17.60;62.20
42755;DHT22;28407;51.830;5.684;2023-05-14T01:50:41;17.60;63.00
42755;DHT22;28407;51.830;5.684;2023-05-14T01:52:41;17.60;62.30
42755;DHT22;28407;51.830;5.684;2023-05-14T01:54:42;17.60;62.40
42755;DHT22;28407;51.830;5.684;2023-05-14T01:56:43;17.50;62.50
42755;DHT22;28407;51.830;5.684;2023-05-14T01:58:43;17.50;62.50
42755;DHT22;28407;51.830;5.684;2023-05-14T02:00:44;17.50;62.70
42755;DHT22;28407;51.830;5.684;2023-05-14T02:02:45;17.40;63.50
42755;DHT22;28407;51.830;5.684;2023-05-14T02:04:46;17.40;62.90
42755;DHT22;28407;51.830;5.684;2023-05-14T02:06:46;17.40;63.00
42755;DHT22;28407;51.830;5.684;2023-05-14T02:08:47;17.40;63.00
42755;DHT22;28407;51.830;5.684;2023-05-14T02:10:48;17.30;63.10
42755;DHT22;28407;51.830;5.684;2023-05-14T02:12:48;17.30;63.20
42755;DHT22;28407;51.830;5.684;2023-05-14T02:14:49;17.30;63.30
42755;DHT22;28407;51.830;5.684;2023-05-14T02:16:49;17.20;63.40
42755;DHT22;28407;51.830;5.684;2023-05-14T02:18:50;17.20;63.40
42755;DHT22;28407;51.830;5.684;2023-05-14T02:20:51;17.20;63.50
42755;DHT22;28407;51.830;5.684;2023-05-14T02:22:51;17.10;63.60
42755;DHT22;28407;51.830;5.684;2023-05-14T02:24:52;17.10;63.70
42755;DHT22;28407;51.830;5.684;2023-05-14T02:26:53;17.10;63.80
42755;DHT22;28407;51.830;5.684;2023-05-14T02:28:53;17.00;63.80
42755;DHT22;28407;51.830;5.684;2023-05-14T02:31:00;17.00;63.90
42755;DHT22;28407;51.830;5.684;2023-05-14T02:33:01;17.00;64.00
42755;DHT22;28407;51.830;5.684;2023-05-14T02:35:01;17.00;64.10
42755;DHT22;28407;51.830;5.684;2023-05-14T02:37:02;17.00;64.20
42755;DHT22;28407;51.830;5.684;2023-05-14T02:39:05;16.90;64.20
42755;DHT22;28407;51.830;5.684;2023-05-14T02:41:06;16.90;64.30
42755;DHT22;28407;51.830;5.684;2023-05-14T02:43:06;16.90;64.40
42755;DHT22;28407;51.830;5.684;2023-05-14T02:45:07;16.80;64.40
42755;DHT22;28407;51.830;5.684;2023-05-14T02:47:08;16.80;64.50
42755;DHT22;28407;51.830;5.684;2023-05-14T02:49:08;16.80;64.60
42755;DHT22;28407;51.830;5.684;2023-05-14T02:51:09;16.80;64.70
42755;DHT22;28407;51.830;5.684;2023-05-14T02:53:10;16.70;64.70
42755;DHT22;28407;51.830;5.684;2023-05-14T02:55:10;16.70;64.80
42755;DHT22;28407;51.830;5.684;2023-05-14T02:57:11;16.70;64.90
42755;DHT22;28407;51.830;5.684;2023-05-14T02:59:12;16.60;64.90
42755;DHT22;28407;51.830;5.684;2023-05-14T03:01:12;16.60;65.00
42755;DHT22;28407;51.830;5.684;2023-05-14T03:03:13;16.60;65.10
42755;DHT22;28407;51.830;5.684;2023-05-14T03:05:14;16.60;65.10
42755;DHT22;28407;51.830;5.684;2023-05-14T03:07:15;16.60;65.20
42755;DHT22;28407;51.830;5.684;2023-05-14T03:09:15;16.50;65.20
42755;DHT22;28407;51.830;5.684;2023-05-14T03:11:16;16.50;65.30
42755;DHT22;28407;51.830;5.684;2023-05-14T03:13:17;16.50;65.40
42755;DHT22;28407;51.830;5.684;2023-05-14T03:15:19;16.50;65.40
42755;DHT22;28407;51.830;5.684;2023-05-14T03:17:20;16.40;65.40
42755;DHT22;28407;51.830;5.684;2023-05-14T03:19:21;16.50;65.50
42755;DHT22;28407;51.830;5.684;2023-05-14T03:21:21;16.40;65.50
42755;DHT22;28407;51.830;5.684;2023-05-14T03:23:22;16.40;65.60
42755;DHT22;28407;51.830;5.684;2023-05-14T03:25:23;16.40;65.70
42755;DHT22;28407;51.830;5.684;2023-05-14T03:27:25;16.30;65.70
42755;DHT22;28407;51.830;5.684;2023-05-14T03:29:25;16.30;65.80
42755;DHT22;28407;51.830;5.684;2023-05-14T03:31:26;16.30;65.80
42755;DHT22;28407;51.830;5.684;2023-05-14T03:33:28;16.30;65.90
42755;DHT22;28407;51.830;5.684;2023-05-14T03:35:28;16.30;66.00
42755;DHT22;28407;51.830;5.684;2023-05-14T03:37:29;16.20;66.00
42755;DHT22;28407;51.830;5.684;2023-05-14T03:39:30;16.20;66.00
42755;DHT22;28407;51.830;5.684;2023-05-14T03:41:31;16.20;66.10
42755;DHT22;28407;51.830;5.684;2023-05-14T03:43:31;16.20;66.20
42755;DHT22;28407;51.830;5.684;2023-05-14T03:45:33;16.10;66.20
42755;DHT22;28407;51.830;5.684;2023-05-14T03:47:34;16.10;66.20
42755;DHT22;28407;51.830;5.684;2023-05-14T03:49:35;16.10;66.30
42755;DHT22;28407;51.830;5.684;2023-05-14T03:51:36;16.10;66.40
42755;DHT22;28407;51.830;5.684;2023-05-14T03:53:38;16.10;66.40
42755;DHT22;28407;51.830;5.684;2023-05-14T03:55:40;16.10;66.50
42755;DHT22;28407;51.830;5.684;2023-05-14T03:57:44;16.10;66.60
42755;DHT22;28407;51.830;5.684;2023-05-14T03:59:46;16.00;66.60
42755;DHT22;28407;51.830;5.684;2023-05-14T04:01:47;16.00;66.60
42755;DHT22;28407;51.830;5.684;2023-05-14T04:03:48;16.00;66.70
42755;DHT22;28407;51.830;5.684;2023-05-14T04:05:49;16.00;66.70
42755;DHT22;28407;51.830;5.684;2023-05-14T04:07:50;16.00;66.80
42755;DHT22;28407;51.830;5.684;2023-05-14T04:09:53;16.00;66.80
42755;DHT22;28407;51.830;5.684;2023-05-14T04:11:54;15.90;66.80
42755;DHT22;28407;51.830;5.684;2023-05-14T04:13:55;15.90;66.80
42755;DHT22;28407;51.830;5.684;2023-05-14T04:15:56;15.90;66.80
42755;DHT22;28407;51.830;5.684;2023-05-14T04:17:57;15.90;66.90
42755;DHT22;28407;51.830;5.684;2023-05-14T04:19:58;15.90;67.00
42755;DHT22;28407;51.830;5.684;2023-05-14T04:21:59;15.80;67.00
42755;DHT22;28407;51.830;5.684;2023-05-14T04:23:59;15.80;67.00
42755;DHT22;28407;51.830;5.684;2023-05-14T04:26:00;15.80;67.10
42755;DHT22;28407;51.830;5.684;2023-05-14T04:28:00;15.90;67.20
42755;DHT22;28407;51.830;5.684;2023-05-14T04:30:01;15.80;67.20
42755;DHT22;28407;51.830;5.684;2023-05-14T04:32:02;15.80;67.20
42755;DHT22;28407;51.830;5.684;2023-05-14T04:34:03;15.80;67.30
42755;DHT22;28407;51.830;5.684;2023-05-14T04:36:04;15.90;67.40
42755;DHT22;28407;51.830;5.684;2023-05-14T04:38:05;15.80;67.30
42755;DHT22;28407;51.830;5.684;2023-05-14T04:40:08;15.80;67.30
42755;DHT22;28407;51.830;5.684;2023-05-14T04:42:10;15.80;67.40
42755;DHT22;28407;51.830;5.684;2023-05-14T04:44:11;15.80;67.40
42755;DHT22;28407;51.830;5.684;2023-05-14T04:46:12;15.80;67.40
42755;DHT22;28407;51.830;5.684;2023-05-14T04:48:13;15.80;67.40
42755;DHT22;28407;51.830;5.684;2023-05-14T04:50:13;15.80;67.50
42755;DHT22;28407;51.830;5.684;2023-05-14T04:52:14;15.80;67.50
42755;DHT22;28407;51.830;5.684;2023-05-14T04:54:15;15.80;67.50
42755;DHT22;28407;51.830;5.684;2023-05-14T04:56:15;15.80;67.60
42755;DHT22;28407;51.830;5.684;2023-05-14T04:58:16;15.80;67.70
42755;DHT22;28407;51.830;5.684;2023-05-14T05:00:17;15.80;67.70
42755;DHT22;28407;51.830;5.684;2023-05-14T05:02:18;15.80;67.80
42755;DHT22;28407;51.830;5.684;2023-05-14T05:04:19;15.70;67.70
42755;DHT22;28407;51.830;5.684;2023-05-14T05:06:19;15.80;67.90
42755;DHT22;28407;51.830;5.684;2023-05-14T05:08:20;15.80;67.90
42755;DHT22;28407;51.830;5.684;2023-05-14T05:10:21;15.80;67.90
42755;DHT22;28407;51.830;5.684;2023-05-14T05:12:21;15.80;67.80
42755;DHT22;28407;51.830;5.684;2023-05-14T05:14:22;15.80;67.90
42755;DHT22;28407;51.830;5.684;2023-05-14T05:16:23;15.80;67.90
42755;DHT22;28407;51.830;5.684;2023-05-14T05:18:23;15.80;68.00
42755;DHT22;28407;51.830;5.684;2023-05-14T05:20:24;15.80;68.00
42755;DHT22;28407;51.830;5.684;2023-05-14T05:22:27;15.80;68.00
42755;DHT22;28407;51.830;5.684;2023-05-14T05:24:28;15.80;68.00
42755;DHT22;28407;51.830;5.684;2023-05-14T05:26:28;15.80;68.00
42755;DHT22;28407;51.830;5.684;2023-05-14T05:28:29;15.90;68.00
42755;DHT22;28407;51.830;5.684;2023-05-14T05:30:30;15.90;68.00
42755;DHT22;28407;51.830;5.684;2023-05-14T05:32:31;15.80;68.00
42755;DHT22;28407;51.830;5.684;2023-05-14T05:34:31;15.90;68.10
42755;DHT22;28407;51.830;5.684;2023-05-14T05:36:32;15.90;68.10
42755;DHT22;28407;51.830;5.684;2023-05-14T05:38:33;15.90;68.10
42755;DHT22;28407;51.830;5.684;2023-05-14T05:40:33;15.90;68.10
42755;DHT22;28407;51.830;5.684;2023-05-14T05:42:34;15.90;68.10
42755;DHT22;28407;51.830;5.684;2023-05-14T05:44:35;15.90;68.10
42755;DHT22;28407;51.830;5.684;2023-05-14T05:46:35;15.80;68.10
42755;DHT22;28407;51.830;5.684;2023-05-14T05:48:36;15.90;68.20
42755;DHT22;28407;51.830;5.684;2023-05-14T05:50:37;15.90;68.20
42755;DHT22;28407;51.830;5.684;2023-05-14T05:52:38;15.90;68.20
42755;DHT22;28407;51.830;5.684;2023-05-14T05:54:39;15.90;68.20
42755;DHT22;28407;51.830;5.684;2023-05-14T05:56:39;15.90;68.20
42755;DHT22;28407;51.830;5.684;2023-05-14T05:58:40;16.00;68.20
42755;DHT22;28407;51.830;5.684;2023-05-14T06:00:41;16.00;68.90
42755;DHT22;28407;51.830;5.684;2023-05-14T06:02:41;16.00;68.20
42755;DHT22;28407;51.830;5.684;2023-05-14T06:04:42;16.00;68.20
42755;DHT22;28407;51.830;5.684;2023-05-14T06:06:43;16.00;68.20
42755;DHT22;28407;51.830;5.684;2023-05-14T06:08:43;16.10;68.20
42755;DHT22;28407;51.830;5.684;2023-05-14T06:10:44;16.10;68.20
42755;DHT22;28407;51.830;5.684;2023-05-14T06:12:45;16.10;68.30
42755;DHT22;28407;51.830;5.684;2023-05-14T06:14:46;16.10;69.00
42755;DHT22;28407;51.830;5.684;2023-05-14T06:16:47;16.10;68.40
42755;DHT22;28407;51.830;5.684;2023-05-14T06:18:47;16.10;68.40
42755;DHT22;28407;51.830;5.684;2023-05-14T06:20:48;16.10;68.50
42755;DHT22;28407;51.830;5.684;2023-05-14T06:22:49;16.10;68.40
42755;DHT22;28407;51.830;5.684;2023-05-14T06:24:49;16.20;68.40
42755;DHT22;28407;51.830;5.684;2023-05-14T06:26:50;16.20;68.40
42755;DHT22;28407;51.830;5.684;2023-05-14T06:28:51;16.20;68.40
42755;DHT22;28407;51.830;5.684;2023-05-14T06:30:51;16.30;68.40
42755;DHT22;28407;51.830;5.684;2023-05-14T06:32:55;16.30;68.40
42755;DHT22;28407;51.830;5.684;2023-05-14T06:34:56;16.30;68.40
42755;DHT22;28407;51.830;5.684;2023-05-14T06:36:56;16.30;68.40
42755;DHT22;28407;51.830;5.684;2023-05-14T06:38:57;16.40;68.40
42755;DHT22;28407;51.830;5.684;2023-05-14T06:40:58;16.40;68.30
42755;DHT22;28407;51.830;5.684;2023-05-14T06:42:58;16.40;68.40
42755;DHT22;28407;51.830;5.684;2023-05-14T06:44:59;16.40;68.40
42755;DHT22;28407;51.830;5.684;2023-05-14T06:47:00;16.50;68.40
42755;DHT22;28407;51.830;5.684;2023-05-14T06:49:00;16.50;68.40
42755;DHT22;28407;51.830;5.684;2023-05-14T06:51:01;16.60;68.50
42755;DHT22;28407;51.830;5.684;2023-05-14T06:53:02;16.60;68.40
42755;DHT22;28407;51.830;5.684;2023-05-14T06:55:03;16.60;68.40
42755;DHT22;28407;51.830;5.684;2023-05-14T06:57:04;16.70;68.40
42755;DHT22;28407;51.830;5.684;2023-05-14T06:59:05;16.70;68.40
42755;DHT22;28407;51.830;5.684;2023-05-14T07:01:05;16.70;68.40
42755;DHT22;28407;51.830;5.684;2023-05-14T07:03:06;16.70;68.40
42755;DHT22;28407;51.830;5.684;2023-05-14T07:05:07;16.70;68.40
42755;DHT22;28407;51.830;5.684;2023-05-14T07:07:08;16.80;68.50
42755;DHT22;28407;51.830;5.684;2023-05-14T07:09:09;16.80;68.50
42755;DHT22;28407;51.830;5.684;2023-05-14T07:11:11;16.80;68.40
42755;DHT22;28407;51.830;5.684;2023-05-14T07:13:12;16.80;68.40
42755;DHT22;28407;51.830;5.684;2023-05-14T07:15:13;16.80;68.40
42755;DHT22;28407;51.830;5.684;2023-05-14T07:17:13;16.80;68.30
42755;DHT22;28407;51.830;5.684;2023-05-14T07:19:14;16.80;68.30
42755;DHT22;28407;51.830;5.684;2023-05-14T07:21:15;16.90;68.30
42755;DHT22;28407;51.830;5.684;2023-05-14T07:23:15;16.90;68.30
42755;DHT22;28407;51.830;5.684;2023-05-14T07:25:16;17.00;68.30
42755;DHT22;28407;51.830;5.684;2023-05-14T07:27:16;17.00;68.20
42755;DHT22;28407;51.830;5.684;2023-05-14T07:29:17;17.00;68.20
42755;DHT22;28407;51.830;5.684;2023-05-14T07:31:18;17.00;68.00
42755;DHT22;28407;51.830;5.684;2023-05-14T07:33:18;17.10;68.10
42755;DHT22;28407;51.830;5.684;2023-05-14T07:35:19;17.20;68.00
42755;DHT22;28407;51.830;5.684;2023-05-14T07:37:20;17.20;67.90
42755;DHT22;28407;51.830;5.684;2023-05-14T07:39:22;17.30;67.90
42755;DHT22;28407;51.830;5.684;2023-05-14T07:41:22;17.30;67.80
42755;DHT22;28407;51.830;5.684;2023-05-14T07:43:23;17.30;67.80
42755;DHT22;28407;51.830;5.684;2023-05-14T07:45:23;17.30;67.80
42755;DHT22;28407;51.830;5.684;2023-05-14T07:47:24;17.40;67.80
42755;DHT22;28407;51.830;5.684;2023-05-14T07:49:25;17.40;67.80
42755;DHT22;28407;51.830;5.684;2023-05-14T07:51:25;17.40;67.80
42755;DHT22;28407;51.830;5.684;2023-05-14T07:53:27;17.50;67.90
42755;DHT22;28407;51.830;5.684;2023-05-14T07:55:28;17.50;67.80
42755;DHT22;28407;51.830;5.684;2023-05-14T07:57:29;17.50;67.80
42755;DHT22;28407;51.830;5.684;2023-05-14T07:59:30;17.50;67.80
42755;DHT22;28407;51.830;5.684;2023-05-14T08:01:30;17.60;67.80
42755;DHT22;28407;51.830;5.684;2023-05-14T08:03:31;17.60;67.70
42755;DHT22;28407;51.830;5.684;2023-05-14T08:05:32;17.60;67.70
42755;DHT22;28407;51.830;5.684;2023-05-14T08:07:33;17.70;67.70
42755;DHT22;28407;51.830;5.684;2023-05-14T08:09:33;17.70;67.70
42755;DHT22;28407;51.830;5.684;2023-05-14T08:11:34;17.70;67.70
42755;DHT22;28407;51.830;5.684;2023-05-14T08:13:35;17.80;67.80
42755;DHT22;28407;51.830;5.684;2023-05-14T08:15:36;17.80;67.80
42755;DHT22;28407;51.830;5.684;2023-05-14T08:17:36;17.90;67.80
42755;DHT22;28407;51.830;5.684;2023-05-14T08:19:37;17.90;67.70
42755;DHT22;28407;51.830;5.684;2023-05-14T08:21:37;17.90;67.60
42755;DHT22;28407;51.830;5.684;2023-05-14T08:23:38;18.00;67.70
42755;DHT22;28407;51.830;5.684;2023-05-14T08:25:39;18.00;67.70
42755;DHT22;28407;51.830;5.684;2023-05-14T08:27:39;18.00;67.60
42755;DHT22;28407;51.830;5.684;2023-05-14T08:29:40;18.10;67.60
42755;DHT22;28407;51.830;5.684;2023-05-14T08:31:41;18.10;67.50
42755;DHT22;28407;51.830;5.684;2023-05-14T08:33:41;18.20;67.40
42755;DHT22;28407;51.830;5.684;2023-05-14T08:35:42;18.20;67.20
42755;DHT22;28407;51.830;5.684;2023-05-14T08:37:42;18.20;67.20
42755;DHT22;28407;51.830;5.684;2023-05-14T08:39:43;18.30;67.00
42755;DHT22;28407;51.830;5.684;2023-05-14T08:41:44;18.30;66.90
42755;DHT22;28407;51.830;5.684;2023-05-14T08:44:07;18.40;67.00
42755;DHT22;28407;51.830;5.684;2023-05-14T08:46:13;18.40;66.90
42755;DHT22;28407;51.830;5.684;2023-05-14T08:48:15;18.40;66.80
42755;DHT22;28407;51.830;5.684;2023-05-14T08:50:17;18.50;66.80
42755;DHT22;28407;51.830;5.684;2023-05-14T08:52:19;18.50;66.60
42755;DHT22;28407;51.830;5.684;2023-05-14T08:54:21;18.50;66.50
42755;DHT22;28407;51.830;5.684;2023-05-14T08:56:24;18.60;66.40
42755;DHT22;28407;51.830;5.684;2023-05-14T08:58:24;18.60;66.30
42755;DHT22;28407;51.830;5.684;2023-05-14T09:00:26;18.60;66.20
42755;DHT22;28407;51.830;5.684;2023-05-14T09:02:28;18.60;66.20
42755;DHT22;28407;51.830;5.684;2023-05-14T09:04:30;18.70;66.20
42755;DHT22;28407;51.830;5.684;2023-05-14T09:06:32;18.70;66.10
42755;DHT22;28407;51.830;5.684;2023-05-14T09:08:32;18.80;66.00
42755;DHT22;28407;51.830;5.684;2023-05-14T09:10:35;18.90;65.90
42755;DHT22;28407;51.830;5.684;2023-05-14T09:12:36;18.90;65.80
42755;DHT22;28407;51.830;5.684;2023-05-14T09:14:36;18.90;65.60
42755;DHT22;28407;51.830;5.684;2023-05-14T09:16:38;19.00;65.60
42755;DHT22;28407;51.830;5.684;2023-05-14T09:18:42;19.00;65.60
42755;DHT22;28407;51.830;5.684;2023-05-14T09:20:43;19.10;65.60
42755;DHT22;28407;51.830;5.684;2023-05-14T09:22:43;19.10;66.10
42755;DHT22;28407;51.830;5.684;2023-05-14T09:24:45;19.10;65.40
42755;DHT22;28407;51.830;5.684;2023-05-14T09:26:52;19.20;65.30
42755;DHT22;28407;51.830;5.684;2023-05-14T09:28:54;19.20;65.40
42755;DHT22;28407;51.830;5.684;2023-05-14T09:30:55;19.30;65.30
42755;DHT22;28407;51.830;5.684;2023-05-14T09:32:56;19.40;65.20
42755;DHT22;28407;51.830;5.684;2023-05-14T09:34:56;19.40;65.00
42755;DHT22;28407;51.830;5.684;2023-05-14T09:36:59;19.40;64.90
42755;DHT22;28407;51.830;5.684;2023-05-14T09:39:03;19.50;64.80
42755;DHT22;28407;51.830;5.684;2023-05-14T09:41:03;19.60;64.60
42755;DHT22;28407;51.830;5.684;2023-05-14T09:43:04;19.70;64.50
42755;DHT22;28407;51.830;5.684;2023-05-14T09:45:07;19.70;64.30
42755;DHT22;28407;51.830;5.684;2023-05-14T09:47:07;19.80;64.20
42755;DHT22;28407;51.830;5.684;2023-05-14T09:49:08;19.90;64.00
42755;DHT22;28407;51.830;5.684;2023-05-14T09:51:09;19.90;63.80
42755;DHT22;28407;51.830;5.684;2023-05-14T09:53:12;20.00;63.80
42755;DHT22;28407;51.830;5.684;2023-05-14T09:55:13;20.10;63.70
42755;DHT22;28407;51.830;5.684;2023-05-14T09:57:14;20.20;63.60
42755;DHT22;28407;51.830;5.684;2023-05-14T09:59:15;20.20;63.50
42755;DHT22;28407;51.830;5.684;2023-05-14T10:01:18;20.20;63.30
42755;DHT22;28407;51.830;5.684;2023-05-14T10:03:21;20.30;63.20
42755;DHT22;28407;51.830;5.684;2023-05-14T10:05:24;20.40;63.10
42755;DHT22;28407;51.830;5.684;2023-05-14T10:07:30;20.50;63.00
42755;DHT22;28407;51.830;5.684;2023-05-14T10:09:33;20.50;62.90
42755;DHT22;28407;51.830;5.684;2023-05-14T10:11:37;20.50;62.70
42755;DHT22;28407;51.830;5.684;2023-05-14T10:13:40;20.60;62.50
42755;DHT22;28407;51.830;5.684;2023-05-14T10:18:03;20.70;62.30
42755;DHT22;28407;51.830;5.684;2023-05-14T10:20:07;20.80;62.20
42755;DHT22;28407;51.830;5.684;2023-05-14T10:22:11;20.80;62.10
42755;DHT22;28407;51.830;5.684;2023-05-14T10:24:14;20.90;62.10
42755;DHT22;28407;51.830;5.684;2023-05-14T10:26:15;21.00;62.10
42755;DHT22;28407;51.830;5.684;2023-05-14T10:28:16;21.00;62.10
42755;DHT22;28407;51.830;5.684;2023-05-14T10:30:20;21.00;61.90
42755;DHT22;28407;51.830;5.684;2023-05-14T10:32:23;21.10;61.70
42755;DHT22;28407;51.830;5.684;2023-05-14T10:34:41;21.20;61.60
42755;DHT22;28407;51.830;5.684;2023-05-14T10:36:45;21.20;61.50
42755;DHT22;28407;51.830;5.684;2023-05-14T10:38:46;21.40;61.50
42755;DHT22;28407;51.830;5.684;2023-05-14T10:41:09;21.40;61.40
42755;DHT22;28407;51.830;5.684;2023-05-14T10:43:11;21.50;61.40
42755;DHT22;28407;51.830;5.684;2023-05-14T10:45:13;21.60;61.20
42755;DHT22;28407;51.830;5.684;2023-05-14T10:47:14;21.70;61.00
42755;DHT22;28407;51.830;5.684;2023-05-14T10:49:16;21.70;60.80
42755;DHT22;28407;51.830;5.684;2023-05-14T10:51:18;21.80;60.70
42755;DHT22;28407;51.830;5.684;2023-05-14T10:53:20;21.80;60.50
42755;DHT22;28407;51.830;5.684;2023-05-14T10:55:30;21.90;60.40
42755;DHT22;28407;51.830;5.684;2023-05-14T10:57:31;22.00;60.30
42755;DHT22;28407;51.830;5.684;2023-05-14T10:59:32;22.00;60.20
42755;DHT22;28407;51.830;5.684;2023-05-14T11:01:34;22.10;60.00
42755;DHT22;28407;51.830;5.684;2023-05-14T11:03:45;22.20;59.80
42755;DHT22;28407;51.830;5.684;2023-05-14T11:05:46;22.30;59.50
42755;DHT22;28407;51.830;5.684;2023-05-14T11:07:48;22.30;59.30
42755;DHT22;28407;51.830;5.684;2023-05-14T11:09:49;22.40;59.20
42755;DHT22;28407;51.830;5.684;2023-05-14T11:11:50;22.50;59.00
42755;DHT22;28407;51.830;5.684;2023-05-14T11:13:52;22.60;58.80
42755;DHT22;28407;51.830;5.684;2023-05-14T11:15:53;22.70;58.70
42755;DHT22;28407;51.830;5.684;2023-05-14T11:17:55;22.80;58.60
42755;DHT22;28407;51.830;5.684;2023-05-14T11:19:56;22.80;58.50
42755;DHT22;28407;51.830;5.684;2023-05-14T11:21:57;22.90;58.20
42755;DHT22;28407;51.830;5.684;2023-05-14T11:24:00;23.00;57.90
42755;DHT22;28407;51.830;5.684;2023-05-14T11:26:01;23.00;57.60
42755;DHT22;28407;51.830;5.684;2023-05-14T11:28:02;23.10;57.50
42755;DHT22;28407;51.830;5.684;2023-05-14T11:30:03;23.10;57.10
42755;DHT22;28407;51.830;5.684;2023-05-14T11:32:05;23.20;56.80
42755;DHT22;28407;51.830;5.684;2023-05-14T11:34:06;23.30;56.70
42755;DHT22;28407;51.830;5.684;2023-05-14T11:36:09;23.30;56.50
42755;DHT22;28407;51.830;5.684;2023-05-14T11:38:15;23.30;56.30
42755;DHT22;28407;51.830;5.684;2023-05-14T11:40:16;23.30;56.10
42755;DHT22;28407;51.830;5.684;2023-05-14T11:42:18;23.40;55.80
42755;DHT22;28407;51.830;5.684;2023-05-14T11:44:19;23.40;55.60
42755;DHT22;28407;51.830;5.684;2023-05-14T11:46:19;23.40;55.40
42755;DHT22;28407;51.830;5.684;2023-05-14T11:48:22;23.50;55.30
42755;DHT22;28407;51.830;5.684;2023-05-14T11:50:22;23.50;55.10
42755;DHT22;28407;51.830;5.684;2023-05-14T11:52:23;23.60;55.00
42755;DHT22;28407;51.830;5.684;2023-05-14T11:54:31;23.60;55.00
42755;DHT22;28407;51.830;5.684;2023-05-14T11:56:32;23.60;54.80
42755;DHT22;28407;51.830;5.684;2023-05-14T11:58:33;23.60;54.90
42755;DHT22;28407;51.830;5.684;2023-05-14T12:00:33;23.60;54.70
42755;DHT22;28407;51.830;5.684;2023-05-14T12:02:35;23.60;54.70
42755;DHT22;28407;51.830;5.684;2023-05-14T12:04:36;23.60;54.70
42755;DHT22;28407;51.830;5.684;2023-05-14T12:06:38;23.70;54.70
42755;DHT22;28407;51.830;5.684;2023-05-14T12:08:38;23.70;54.50
42755;DHT22;28407;51.830;5.684;2023-05-14T12:10:42;23.70;54.00
42755;DHT22;28407;51.830;5.684;2023-05-14T12:12:45;23.80;53.70
42755;DHT22;28407;51.830;5.684;2023-05-14T12:14:47;23.70;53.50
42755;DHT22;28407;51.830;5.684;2023-05-14T12:16:50;23.80;53.70
42755;DHT22;28407;51.830;5.684;2023-05-14T12:18:51;23.80;53.60
42755;DHT22;28407;51.830;5.684;2023-05-14T12:20:51;23.80;53.50
42755;DHT22;28407;51.830;5.684;2023-05-14T12:22:52;23.90;53.60
42755;DHT22;28407;51.830;5.684;2023-05-14T12:24:57;23.90;53.60
42755;DHT22;28407;51.830;5.684;2023-05-14T12:27:00;23.90;53.50
42755;DHT22;28407;51.830;5.684;2023-05-14T12:29:01;23.90;53.30
42755;DHT22;28407;51.830;5.684;2023-05-14T12:31:02;23.90;53.10
42755;DHT22;28407;51.830;5.684;2023-05-14T12:33:03;23.90;53.30
42755;DHT22;28407;51.830;5.684;2023-05-14T12:35:04;23.80;53.50
42755;DHT22;28407;51.830;5.684;2023-05-14T12:37:05;23.80;53.60
42755;DHT22;28407;51.830;5.684;2023-05-14T12:39:06;23.80;53.70
42755;DHT22;28407;51.830;5.684;2023-05-14T12:41:07;23.80;54.30
42755;DHT22;28407;51.830;5.684;2023-05-14T12:43:08;23.70;53.70
42755;DHT22;28407;51.830;5.684;2023-05-14T12:45:09;23.70;53.70
42755;DHT22;28407;51.830;5.684;2023-05-14T12:47:09;23.70;53.80
42755;DHT22;28407;51.830;5.684;2023-05-14T12:49:10;23.70;53.90
42755;DHT22;28407;51.830;5.684;2023-05-14T12:51:11;23.70;53.90